createdAt,value
2023-01-04T00:00:16.288Z,6.95
2023-01-04T00:02:44.675Z,6.94
2023-01-04T00:05:14.539Z,6.56
2023-01-04T00:07:42.873Z,6.88
2023-01-04T00:10:11.158Z,6.88
2023-01-04T00:12:39.459Z,6.78
2023-01-04T00:15:09.153Z,6.84
2023-01-04T00:17:37.439Z,6.93
2023-01-04T00:20:06.390Z,6.12
2023-01-04T00:22:36.295Z,6.63
2023-01-04T00:25:04.985Z,6.56
2023-01-04T00:27:33.327Z,6.11
2023-01-04T00:30:01.560Z,6.49
2023-01-04T00:32:29.943Z,6.48
2023-01-04T00:34:58.253Z,6.60
2023-01-04T00:37:26.504Z,6.55
2023-01-04T00:39:56.247Z,6.64
2023-01-04T00:42:24.507Z,6.59
2023-01-04T00:44:52.763Z,6.67
2023-01-04T00:47:21.167Z,6.56
2023-01-04T00:49:49.419Z,6.56
2023-01-04T00:52:17.634Z,6.60
2023-01-04T00:54:46.535Z,6.15
2023-01-04T00:57:16.143Z,6.63
2023-01-04T00:59:44.382Z,6.61
2023-01-04T01:02:12.919Z,6.54
2023-01-04T01:04:41.421Z,5.83
2023-01-04T01:07:09.722Z,5.76
2023-01-04T01:09:38.053Z,5.42
2023-01-04T01:12:06.675Z,5.29
2023-01-04T01:14:36.413Z,5.99
2023-01-04T01:17:04.786Z,6.14
2023-01-04T01:19:33.359Z,6.10
2023-01-04T01:22:01.726Z,6.05
2023-01-04T01:24:30.030Z,6.25
2023-01-04T01:26:58.495Z,6.00
2023-01-04T01:29:27.124Z,6.15
2023-01-04T01:31:56.842Z,6.10
2023-01-04T01:34:25.099Z,6.11
2023-01-04T01:36:53.361Z,6.16
2023-01-04T01:39:21.824Z,5.89
2023-01-04T01:41:50.655Z,6.04
2023-01-04T01:45:11.250Z,6.16
2023-01-04T01:47:45.175Z,6.00
2023-01-04T01:50:24.187Z,6.15
2023-01-04T01:52:54.415Z,6.10
2023-01-04T01:55:23.935Z,6.14
2023-01-04T01:57:55.077Z,5.95
2023-01-04T02:00:23.680Z,6.15
2023-01-04T02:03:04.140Z,6.16
2023-01-04T02:05:34.009Z,6.11
2023-01-04T02:08:04.240Z,6.07
2023-01-04T02:10:33.717Z,5.96
2023-01-04T02:13:07.607Z,5.68
2023-01-04T02:15:45.999Z,5.47
2023-01-04T02:18:22.816Z,5.55
2023-01-04T02:21:00.397Z,5.63
2023-01-04T02:24:17.842Z,4.22
2023-01-04T02:27:19.037Z,5.31
2023-01-04T02:30:19.790Z,4.98
2023-01-04T02:33:07.260Z,5.45
2023-01-04T02:35:45.096Z,5.32
2023-01-04T02:38:21.760Z,5.28
2023-01-04T02:40:58.811Z,5.21
2023-01-04T02:43:49.818Z,5.41
2023-01-04T02:46:25.609Z,4.87
2023-01-04T02:49:12.789Z,5.10
2023-01-04T02:51:43.371Z,5.45
2023-01-04T02:54:14.976Z,5.48
2023-01-04T02:57:06.292Z,5.47
2023-01-04T02:59:58.334Z,5.44
2023-01-04T03:03:12.519Z,5.53
2023-01-04T03:06:06.773Z,5.52
2023-01-04T03:08:39.501Z,5.63
2023-01-04T03:11:31.337Z,5.41
2023-01-04T03:14:31.479Z,5.56
2023-01-04T03:16:53.824Z,5.62
2023-01-04T03:19:39.129Z,5.40
2023-01-04T03:22:30.437Z,5.45
2023-01-04T03:25:18.008Z,5.12
2023-01-04T03:28:09.600Z,4.89
2023-01-04T03:31:03.805Z,4.89
2023-01-04T03:33:50.331Z,4.88
2023-01-04T03:36:28.481Z,5.22
2023-01-04T03:39:21.889Z,4.82
2023-01-04T03:42:15.096Z,5.27
2023-01-04T03:45:10.213Z,5.37
2023-01-04T03:48:02.920Z,5.49
2023-01-04T03:50:38.764Z,5.27
2023-01-04T03:53:08.705Z,5.36
2023-01-04T03:55:40.829Z,5.35
2023-01-04T03:58:09.282Z,5.57
2023-01-04T04:00:37.604Z,5.43
2023-01-04T04:03:08.733Z,5.56
2023-01-04T04:05:59.796Z,5.54
2023-01-04T04:08:29.059Z,5.37
2023-01-04T04:11:20.161Z,5.35
2023-01-04T04:13:49.456Z,5.22
2023-01-04T04:16:19.018Z,5.25
2023-01-04T04:18:48.209Z,4.86
2023-01-04T04:21:16.610Z,5.21
2023-01-04T04:23:45.200Z,5.03
2023-01-04T04:26:15.061Z,2.96
2023-01-04T04:28:43.849Z,3.71
2023-01-04T04:31:12.167Z,3.70
2023-01-04T04:33:40.644Z,3.79
2023-01-04T04:36:09.902Z,3.70
2023-01-04T04:38:40.757Z,3.55
2023-01-04T04:41:27.448Z,3.68
2023-01-04T04:43:57.199Z,3.77
2023-01-04T04:46:28.884Z,3.29
2023-01-04T04:48:57.485Z,3.62
2023-01-04T04:51:25.936Z,3.58
2023-01-04T04:53:54.261Z,3.73
2023-01-04T04:56:23.091Z,2.98
2023-01-04T04:58:51.656Z,3.00
2023-01-04T05:01:21.725Z,3.41
2023-01-04T05:03:50.254Z,3.59
2023-01-04T05:06:18.642Z,3.66
2023-01-04T05:08:46.945Z,3.65
2023-01-04T05:11:18.593Z,3.06
2023-01-04T05:13:45.894Z,3.34
2023-01-04T05:16:14.194Z,3.39
2023-01-04T05:18:43.964Z,3.46
2023-01-04T05:21:16.897Z,3.39
2023-01-04T05:23:48.123Z,3.51
2023-01-04T05:26:16.414Z,3.69
2023-01-04T05:28:49.928Z,3.61
2023-01-04T05:31:20.823Z,3.48
2023-01-04T05:33:50.527Z,3.03
2023-01-04T05:36:18.833Z,3.34
2023-01-04T05:38:47.251Z,3.61
2023-01-04T05:41:29.435Z,3.18
2023-01-04T05:43:57.860Z,2.84
2023-01-04T05:46:28.643Z,2.72
2023-01-04T05:48:58.603Z,3.04
2023-01-04T05:51:26.970Z,3.04
2023-01-04T05:53:55.174Z,2.83
2023-01-04T05:56:23.494Z,2.89
2023-01-04T05:58:51.932Z,2.92
2023-01-04T06:01:20.391Z,3.17
2023-01-04T06:03:48.915Z,3.02
2023-01-04T06:06:18.812Z,2.58
2023-01-04T06:08:47.125Z,2.69
2023-01-04T06:11:15.517Z,3.07
2023-01-04T06:13:43.844Z,3.46
2023-01-04T06:16:12.124Z,3.78
2023-01-04T06:18:40.488Z,3.80
2023-01-04T06:21:11.123Z,3.88
2023-01-04T06:23:40.765Z,4.15
2023-01-04T06:26:09.107Z,4.33
2023-01-04T06:28:40.932Z,4.63
2023-01-04T06:31:11.262Z,4.69
2023-01-04T06:33:39.936Z,4.79
2023-01-04T06:36:19.822Z,4.79
2023-01-04T06:38:50.721Z,4.61
2023-01-04T06:41:19.196Z,4.48
2023-01-04T06:43:47.512Z,3.88
2023-01-04T06:46:15.747Z,3.82
2023-01-04T06:48:44.295Z,4.69
2023-01-04T06:51:12.983Z,4.94
2023-01-04T06:53:41.502Z,5.51
2023-01-04T06:56:11.210Z,5.55
2023-01-04T06:58:39.960Z,5.75
2023-01-04T07:01:08.674Z,6.20
2023-01-04T07:03:37.141Z,6.33
2023-01-04T07:06:07.315Z,6.58
2023-01-04T07:08:36.269Z,6.15
2023-01-04T07:11:04.845Z,5.25
2023-01-04T07:13:34.717Z,6.52
2023-01-04T07:16:03.038Z,6.66
2023-01-04T07:18:31.298Z,6.88
2023-01-04T07:20:59.670Z,7.45
2023-01-04T07:23:28.044Z,7.73
2023-01-04T07:25:56.252Z,8.09
2023-01-04T07:28:41.113Z,8.08
2023-01-04T07:31:11.120Z,8.05
2023-01-04T07:33:39.703Z,8.71
2023-01-04T07:36:08.900Z,9.26
2023-01-04T07:38:37.380Z,9.30
2023-01-04T07:41:06.000Z,9.24
2023-01-04T07:43:34.277Z,9.49
2023-01-04T07:46:03.354Z,9.42
2023-01-04T07:48:33.050Z,9.57
2023-01-04T07:51:01.358Z,9.44
2023-01-04T07:53:29.656Z,9.44
2023-01-04T07:55:58.699Z,9.66
2023-01-04T07:58:27.295Z,10.69
2023-01-04T08:00:55.831Z,10.80
2023-01-04T08:03:24.070Z,11.27
2023-01-04T08:05:57.469Z,11.57
2023-01-04T08:08:25.790Z,11.25
2023-01-04T08:10:54.089Z,11.72
2023-01-04T08:13:23.019Z,11.82
2023-01-04T08:15:54.441Z,11.94
2023-01-04T08:18:22.938Z,12.21
2023-01-04T08:20:56.639Z,12.77
2023-01-04T08:23:28.260Z,12.53
2023-01-04T08:25:56.467Z,12.99
2023-01-04T08:28:24.792Z,12.76
2023-01-04T08:30:53.199Z,12.60
2023-01-04T08:33:21.527Z,13.09
2023-01-04T08:35:49.793Z,13.40
2023-01-04T08:38:58.261Z,14.21
2023-01-04T08:41:23.500Z,14.18
2023-01-04T08:43:56.371Z,14.10
2023-01-04T08:46:24.763Z,14.45
2023-01-04T08:48:53.597Z,14.78
2023-01-04T08:51:22.107Z,15.03
2023-01-04T08:53:50.803Z,15.03
2023-01-04T08:56:20.484Z,14.54
2023-01-04T08:58:48.817Z,14.93
2023-01-04T09:01:17.234Z,15.17
2023-01-04T09:03:46.884Z,14.89
2023-01-04T09:06:17.034Z,15.33
2023-01-04T09:08:45.634Z,15.88
2023-01-04T09:11:15.672Z,16.19
2023-01-04T09:13:46.141Z,16.38
2023-01-04T09:16:17.051Z,16.85
2023-01-04T09:18:46.159Z,16.58
2023-01-04T09:21:16.349Z,16.65
2023-01-04T09:23:46.077Z,17.21
2023-01-04T09:26:16.246Z,17.48
2023-01-04T09:28:46.529Z,17.25
2023-01-04T09:31:16.713Z,17.22
2023-01-04T09:34:13.288Z,17.15
2023-01-04T09:36:34.081Z,17.01
2023-01-04T09:39:02.364Z,16.96
2023-01-04T09:41:33.639Z,17.17
2023-01-04T09:44:08.416Z,17.29
2023-01-04T09:46:45.770Z,17.57
2023-01-04T09:49:20.410Z,18.49
2023-01-04T09:51:57.917Z,18.40
2023-01-04T09:54:35.506Z,18.28
2023-01-04T09:57:06.559Z,18.41
2023-01-04T09:59:36.381Z,18.47
2023-01-04T10:02:12.338Z,18.66
2023-01-04T10:04:47.719Z,18.76
2023-01-04T10:07:20.132Z,19.67
2023-01-04T10:09:48.428Z,19.85
2023-01-04T10:12:31.063Z,19.53
2023-01-04T10:15:12.904Z,18.99
2023-01-04T10:24:04.193Z,20.04
2023-01-04T10:26:39.345Z,20.32
2023-01-04T10:29:33.547Z,21.58
2023-01-04T10:32:06.482Z,22.66
2023-01-04T10:34:42.067Z,23.59
2023-01-04T10:37:16.355Z,23.18
2023-01-04T10:39:46.040Z,22.71
2023-01-04T10:42:21.040Z,23.32
2023-01-04T10:45:05.090Z,22.47
2023-01-04T10:47:45.774Z,23.01
2023-01-04T10:50:23.773Z,22.53
2023-01-04T10:52:57.525Z,22.08
2023-01-04T10:55:33.099Z,22.53
2023-01-04T10:58:05.953Z,22.01
2023-01-04T11:00:39.474Z,22.29
2023-01-04T11:03:17.245Z,21.39
2023-01-04T11:05:51.187Z,22.03
2023-01-04T11:08:24.976Z,22.05
2023-01-04T11:10:58.174Z,21.38
2023-01-04T11:13:26.698Z,22.03
2023-01-04T11:15:55.566Z,22.28
2023-01-04T11:18:25.482Z,22.21
2023-01-04T11:20:54.325Z,22.77
2023-01-04T11:23:22.625Z,23.53
2023-01-04T11:25:56.369Z,23.57
2023-01-04T11:28:29.568Z,23.16
2023-01-04T11:31:06.753Z,23.59
2023-01-04T11:33:53.154Z,23.59
2023-01-04T11:36:38.647Z,23.12
2023-01-04T11:39:08.713Z,23.19
2023-01-04T11:41:37.047Z,23.03
2023-01-04T11:44:08.925Z,23.07
2023-01-04T11:46:37.128Z,22.91
2023-01-04T11:49:11.833Z,22.45
2023-01-04T11:51:42.781Z,23.23
2023-01-04T11:54:21.442Z,22.61
2023-01-04T11:57:11.937Z,23.07
2023-01-04T11:59:40.896Z,23.48
2023-01-04T12:02:42.695Z,23.96
2023-01-04T12:05:24.535Z,25.04
2023-01-04T12:07:57.987Z,25.68
2023-01-04T12:10:28.907Z,25.54
2023-01-04T12:12:58.648Z,25.60
2023-01-04T12:15:35.829Z,25.17
2023-01-04T12:18:08.794Z,24.55
2023-01-04T12:20:38.573Z,23.92
2023-01-04T12:23:07.172Z,23.70
2023-01-04T12:25:40.464Z,21.31
2023-01-04T12:28:28.702Z,22.46
2023-01-04T12:30:57.076Z,22.45
2023-01-04T12:33:41.329Z,22.30
2023-01-04T12:36:12.329Z,24.29
2023-01-04T12:39:01.070Z,24.61
2023-01-04T12:42:22.223Z,23.91
2023-01-04T12:45:17.235Z,24.13
2023-01-04T12:48:12.867Z,24.07
2023-01-04T12:51:32.219Z,24.65
2023-01-04T12:54:04.767Z,24.26
2023-01-04T12:57:10.649Z,24.22
2023-01-04T12:59:39.743Z,24.03
2023-01-04T13:02:19.411Z,23.52
2023-01-04T13:04:48.606Z,23.51
2023-01-04T13:07:22.054Z,23.84
2023-01-04T13:09:55.392Z,24.25
2023-01-04T13:12:56.629Z,24.24
2023-01-04T13:15:35.685Z,24.43
2023-01-04T13:18:11.856Z,24.90
2023-01-04T13:20:40.908Z,24.59
2023-01-04T13:23:14.113Z,24.17
2023-01-04T13:25:43.823Z,23.57
2023-01-04T13:28:19.940Z,24.11
2023-01-04T13:30:48.478Z,24.22
2023-01-04T13:33:28.081Z,24.77
2023-01-04T13:36:04.557Z,23.04
2023-01-04T13:38:35.708Z,23.40
2023-01-04T13:41:21.172Z,21.66
2023-01-04T13:44:04.603Z,21.68
2023-01-04T13:46:33.429Z,21.99
2023-01-04T13:49:03.827Z,20.49
2023-01-04T13:51:38.061Z,20.15
2023-01-04T13:54:08.814Z,19.44
2023-01-04T13:56:38.529Z,18.99
2023-01-04T13:59:06.912Z,18.16
2023-01-04T14:01:38.881Z,17.71
2023-01-04T14:04:09.077Z,17.42
2023-01-04T14:06:44.373Z,16.89
2023-01-04T14:09:18.786Z,16.38
2023-01-04T14:12:08.554Z,16.36
2023-01-04T14:14:48.142Z,15.42
2023-01-04T14:17:27.725Z,15.95
2023-01-04T14:19:58.036Z,15.33
2023-01-04T14:22:38.260Z,14.78
2023-01-04T14:25:40.893Z,14.53
2023-01-04T14:28:27.803Z,14.20
2023-01-04T14:30:57.919Z,13.70
2023-01-04T14:33:34.013Z,13.87
2023-01-04T14:36:04.221Z,14.00
2023-01-04T14:38:36.710Z,12.98
2023-01-04T14:41:13.791Z,12.86
2023-01-04T14:43:48.981Z,13.27
2023-01-04T14:46:18.011Z,13.43
2023-01-04T14:48:46.339Z,13.50
2023-01-04T14:51:18.922Z,13.29
2023-01-04T14:53:47.623Z,14.13
2023-01-04T14:56:18.184Z,14.56
2023-01-04T14:58:47.871Z,14.57
2023-01-04T15:01:18.846Z,14.69
2023-01-04T15:03:49.865Z,14.71
2023-01-04T15:06:18.318Z,14.44
2023-01-04T15:08:46.719Z,14.00
2023-01-04T15:11:15.836Z,14.16
2023-01-04T15:13:44.593Z,13.94
2023-01-04T15:16:16.317Z,12.66
2023-01-04T15:18:45.745Z,12.30
2023-01-04T15:21:14.763Z,11.68
2023-01-04T15:23:43.012Z,11.18
2023-01-04T15:26:13.401Z,11.45
2023-01-04T15:28:41.739Z,11.20
2023-01-04T15:31:12.170Z,10.76
2023-01-04T15:33:42.242Z,10.64
2023-01-04T15:36:17.380Z,11.29
2023-01-04T15:38:48.362Z,11.61
2023-01-04T15:41:32.178Z,11.69
2023-01-04T15:44:00.545Z,12.04
2023-01-04T15:46:29.134Z,11.87
2023-01-04T15:48:58.967Z,11.87
2023-01-04T15:51:27.318Z,12.12
2023-01-04T15:53:56.812Z,12.10
2023-01-04T15:56:25.193Z,12.07
2023-01-04T15:58:54.849Z,12.00
2023-01-04T16:01:24.331Z,11.76
2023-01-04T16:03:54.244Z,11.33
2023-01-04T16:06:25.096Z,11.13
2023-01-04T16:08:53.540Z,11.58
2023-01-04T16:11:23.656Z,11.09
2023-01-04T16:13:53.616Z,10.49
2023-01-04T16:16:23.882Z,11.11
2023-01-04T16:18:53.458Z,11.46
2023-01-04T16:21:25.578Z,11.60
2023-01-04T16:24:01.831Z,11.49
2023-01-04T16:26:34.097Z,11.70
2023-01-04T16:29:03.037Z,11.37
2023-01-04T16:31:34.659Z,11.40
2023-01-04T16:34:03.246Z,11.23
2023-01-04T16:36:32.928Z,11.04
2023-01-04T16:39:03.355Z,10.44
2023-01-04T16:41:31.741Z,10.68
2023-01-04T16:44:01.017Z,10.64
2023-01-04T16:46:31.355Z,10.73
2023-01-04T16:49:01.368Z,11.21
2023-01-04T16:51:33.363Z,11.15
2023-01-04T16:54:03.669Z,11.14
2023-01-04T16:56:33.167Z,10.77
2023-01-04T16:59:02.371Z,11.16
2023-01-04T17:01:32.270Z,11.20
2023-01-04T17:04:03.092Z,10.79
2023-01-04T17:06:34.114Z,11.19
2023-01-04T17:09:03.367Z,11.34
2023-01-04T17:14:22.351Z,10.72
2023-01-04T17:16:50.691Z,10.22
2023-01-04T17:19:19.189Z,10.59
2023-01-04T17:21:49.003Z,10.80
2023-01-04T17:24:18.199Z,10.56
2023-01-04T17:26:47.347Z,10.49
2023-01-04T17:29:16.541Z,10.16
2023-01-04T17:31:46.725Z,9.93
2023-01-04T17:34:22.680Z,10.18
2023-01-04T17:36:52.825Z,10.25
2023-01-04T17:39:21.917Z,10.30
2023-01-04T17:41:53.299Z,10.16
2023-01-04T17:44:24.782Z,9.87
2023-01-04T17:46:53.173Z,10.14
2023-01-04T17:49:24.050Z,10.00
2023-01-04T17:51:58.242Z,9.28
2023-01-04T17:54:27.205Z,9.28
2023-01-04T17:56:55.863Z,9.63
2023-01-04T17:59:24.827Z,9.79
2023-01-04T18:01:53.705Z,9.65
2023-01-04T18:04:22.797Z,9.75
2023-01-04T18:06:51.815Z,9.72
2023-01-04T18:09:27.511Z,8.77
2023-01-04T18:11:56.754Z,8.71
2023-01-04T18:14:26.351Z,8.93
2023-01-04T18:16:58.452Z,8.11
2023-01-04T18:19:29.356Z,8.40
2023-01-04T18:21:58.345Z,8.53
2023-01-04T18:24:43.830Z,8.92
2023-01-04T18:27:25.435Z,8.19
2023-01-04T18:29:58.967Z,8.40
2023-01-04T18:32:28.620Z,9.13
2023-01-04T18:34:57.440Z,9.00
2023-01-04T18:37:25.760Z,9.16
2023-01-04T18:39:59.146Z,9.25
2023-01-04T18:42:27.760Z,9.02
2023-01-04T18:44:57.557Z,9.31
2023-01-04T18:47:28.852Z,9.25
2023-01-04T18:49:57.831Z,9.21
2023-01-04T18:52:26.193Z,8.92
2023-01-04T18:54:56.676Z,9.15
2023-01-04T18:57:28.850Z,8.88
2023-01-04T19:00:00.734Z,8.81
2023-01-04T19:02:29.173Z,8.92
2023-01-04T19:04:57.552Z,8.92
2023-01-04T19:07:25.961Z,8.91
2023-01-04T19:09:55.773Z,8.94
2023-01-04T19:12:24.192Z,8.95
2023-01-04T19:14:52.492Z,9.00
2023-01-04T19:17:24.576Z,9.01
2023-01-04T19:19:53.470Z,8.75
2023-01-04T19:22:21.667Z,8.90
2023-01-04T19:24:49.961Z,8.77
2023-01-04T19:27:20.629Z,7.64
2023-01-04T19:29:49.082Z,7.92
2023-01-04T19:32:21.158Z,8.38
2023-01-04T19:34:49.519Z,8.34
2023-01-04T19:37:17.962Z,7.78
2023-01-04T19:39:46.219Z,7.85
2023-01-04T19:42:14.575Z,8.20
2023-01-04T19:44:44.275Z,8.69
2023-01-04T19:47:12.576Z,8.97
2023-01-04T19:49:40.789Z,9.24
2023-01-04T19:52:09.072Z,8.73
2023-01-04T19:54:38.089Z,9.36
2023-01-04T19:57:06.469Z,9.51
2023-01-04T19:59:34.855Z,9.13
2023-01-04T20:02:04.774Z,8.82
2023-01-04T20:04:33.894Z,9.10
2023-01-04T20:07:02.116Z,9.42
2023-01-04T20:09:32.147Z,9.58
2023-01-04T20:12:00.512Z,9.63
2023-01-04T20:14:29.231Z,9.50
2023-01-04T20:16:57.609Z,9.64
2023-01-04T20:19:27.425Z,9.69
2023-01-04T20:21:59.416Z,9.73
2023-01-04T20:24:31.290Z,9.74
2023-01-04T20:26:59.593Z,9.81
2023-01-04T20:29:28.472Z,9.81
2023-01-04T20:31:57.165Z,9.75
2023-01-04T20:34:29.058Z,9.68
2023-01-04T20:37:00.894Z,9.55
2023-01-04T20:39:30.612Z,9.38
2023-01-04T20:42:16.692Z,9.74
2023-01-04T20:44:48.133Z,9.87
2023-01-04T20:47:21.075Z,9.92
2023-01-04T20:50:06.757Z,9.98
2023-01-04T20:52:36.388Z,10.10
2023-01-04T20:55:04.986Z,9.92
2023-01-04T20:57:36.782Z,8.99
2023-01-04T21:00:06.620Z,9.33
2023-01-04T21:02:38.620Z,8.96
2023-01-04T21:05:09.937Z,8.88
2023-01-04T21:07:44.065Z,8.66
2023-01-04T21:10:14.737Z,8.91
2023-01-04T21:12:43.711Z,9.12
2023-01-04T21:15:13.176Z,9.12
2023-01-04T21:17:42.779Z,8.85
2023-01-04T21:20:13.591Z,9.27
2023-01-04T21:22:43.409Z,8.86
2023-01-04T21:25:15.186Z,9.25
2023-01-04T21:27:46.958Z,9.51
2023-01-04T21:30:16.132Z,9.62
2023-01-04T21:32:48.003Z,9.62
2023-01-04T21:35:18.127Z,9.69
2023-01-04T21:37:47.726Z,9.92
2023-01-04T21:40:16.284Z,9.81
2023-01-04T21:42:45.607Z,9.77
2023-01-04T21:45:13.909Z,9.90
2023-01-04T21:47:48.706Z,9.67
2023-01-04T21:50:19.948Z,9.82
2023-01-04T21:52:53.916Z,9.72
2023-01-04T21:55:34.907Z,9.83
2023-01-04T21:58:03.571Z,9.88
2023-01-04T22:00:31.839Z,10.06
2023-01-04T22:03:00.210Z,9.98
2023-01-04T22:05:32.064Z,9.53
2023-01-04T22:08:00.316Z,9.94
2023-01-04T22:10:28.671Z,10.10
2023-01-04T22:12:56.942Z,9.54
2023-01-04T22:15:25.192Z,9.84
2023-01-04T22:17:53.641Z,9.94
2023-01-04T22:20:22.054Z,10.00
2023-01-04T22:22:51.722Z,10.13
2023-01-04T22:25:21.365Z,9.82
2023-01-04T22:27:51.200Z,9.42
2023-01-04T22:30:19.688Z,9.74
2023-01-04T22:32:49.572Z,9.32
2023-01-04T22:35:19.417Z,8.78
2023-01-04T22:37:48.990Z,9.05
2023-01-04T22:40:19.870Z,9.35
2023-01-04T22:42:54.316Z,9.41
2023-01-04T22:45:56.254Z,9.55
2023-01-04T22:48:27.023Z,9.54
2023-01-04T22:50:58.451Z,9.04
2023-01-04T22:53:26.850Z,9.13
2023-01-04T22:58:52.528Z,8.57
2023-01-04T23:01:28.063Z,8.09
2023-01-04T23:03:57.472Z,8.11
2023-01-04T23:06:31.007Z,7.80
2023-01-04T23:09:02.013Z,7.41
2023-01-04T23:11:33.557Z,7.61
2023-01-04T23:14:03.515Z,7.76
2023-01-04T23:16:33.400Z,8.09
2023-01-04T23:19:03.020Z,8.62
2023-01-04T23:21:31.595Z,8.44
2023-01-04T23:24:02.522Z,8.48
2023-01-04T23:26:33.274Z,8.82
2023-01-04T23:29:04.838Z,8.76
2023-01-04T23:31:35.799Z,8.46
2023-01-04T23:34:08.398Z,8.72
2023-01-04T23:36:44.740Z,8.32
2023-01-04T23:39:15.826Z,8.83
2023-01-04T23:41:46.208Z,8.73
2023-01-04T23:44:17.319Z,8.74
2023-01-04T23:46:46.559Z,8.75
2023-01-04T23:49:15.185Z,8.75
2023-01-04T23:51:43.836Z,8.78
2023-01-04T23:54:12.512Z,8.70
2023-01-04T23:56:41.308Z,8.70
2023-01-04T23:59:11.387Z,8.53
